sensor_id;sensor_type;location;lat;lon;timestamp;pressure;altitude;pressure_sealevel;temperature;humidity
60061;BME280;45933;51.336;12.612;2023-03-14T00:01:20;97698.16;;;12.30;67.72
60061;BME280;45933;51.336;12.612;2023-03-14T00:03:46;97699.59;;;12.36;67.34
60061;BME280;45933;51.336;12.612;2023-03-14T00:06:13;97699.91;;;12.30;67.58
60061;BME280;45933;51.336;12.612;2023-03-14T00:08:38;97694.38;;;12.36;67.25
60061;BME280;45933;51.336;12.612;2023-03-14T00:11:06;97688.31;;;12.36;67.57
60061;BME280;45933;51.336;12.612;2023-03-14T00:13:31;97686.53;;;12.36;66.99
60061;BME280;45933;51.336;12.612;2023-03-14T00:16:02;97690.22;;;12.32;67.41
60061;BME280;45933;51.336;12.612;2023-03-14T00:18:28;97688.63;;;12.29;67.50
60061;BME280;45933;51.336;12.612;2023-03-14T00:20:53;97695.69;;;12.27;67.81
60061;BME280;45933;51.336;12.612;2023-03-14T00:23:18;97694.06;;;12.25;67.71
60061;BME280;45933;51.336;12.612;2023-03-14T00:25:44;97681.00;;;12.25;67.50
60061;BME280;45933;51.336;12.612;2023-03-14T00:28:09;97684.28;;;12.28;67.43
60061;BME280;45933;51.336;12.612;2023-03-14T00:30:37;97677.34;;;12.29;67.70
60061;BME280;45933;51.336;12.612;2023-03-14T00:33:02;97675.56;;;12.29;67.25
60061;BME280;45933;51.336;12.612;2023-03-14T00:35:27;97695.22;;;12.19;67.86
60061;BME280;45933;51.336;12.612;2023-03-14T00:37:52;97682.47;;;12.30;67.25
60061;BME280;45933;51.336;12.612;2023-03-14T00:40:18;97689.53;;;12.28;67.26
60061;BME280;45933;51.336;12.612;2023-03-14T00:42:43;97699.44;;;12.22;67.73
60061;BME280;45933;51.336;12.612;2023-03-14T00:45:09;97709.34;;;12.33;66.74
60061;BME280;45933;51.336;12.612;2023-03-14T00:47:35;97720.59;;;12.35;66.82
60061;BME280;45933;51.336;12.612;2023-03-14T00:50:00;97719.97;;;12.29;67.31
60061;BME280;45933;51.336;12.612;2023-03-14T00:52:26;97712.75;;;12.35;66.72
60061;BME280;45933;51.336;12.612;2023-03-14T00:54:51;97707.53;;;12.35;66.75
60061;BME280;45933;51.336;12.612;2023-03-14T00:57:16;97706.06;;;12.29;66.99
60061;BME280;45933;51.336;12.612;2023-03-14T00:59:42;97706.75;;;12.33;66.83
60061;BME280;45933;51.336;12.612;2023-03-14T01:02:07;97702.53;;;12.30;66.75
60061;BME280;45933;51.336;12.612;2023-03-14T01:04:32;97700.75;;;12.30;66.81
60061;BME280;45933;51.336;12.612;2023-03-14T01:06:57;97703.97;;;12.36;66.27
60061;BME280;45933;51.336;12.612;2023-03-14T01:09:23;97716.81;;;12.40;66.14
60061;BME280;45933;51.336;12.612;2023-03-14T01:11:48;97731.66;;;12.40;66.23
60061;BME280;45933;51.336;12.612;2023-03-14T01:14:14;97745.88;;;12.34;66.46
60061;BME280;45933;51.336;12.612;2023-03-14T01:16:39;97742.38;;;12.34;66.53
60061;BME280;45933;51.336;12.612;2023-03-14T01:19:04;97750.84;;;12.39;65.96
60061;BME280;45933;51.336;12.612;2023-03-14T01:21:32;97751.00;;;12.36;66.46
60061;BME280;45933;51.336;12.612;2023-03-14T01:23:59;97749.22;;;12.36;65.86
60061;BME280;45933;51.336;12.612;2023-03-14T01:26:28;97757.84;;;12.38;65.80
60061;BME280;45933;51.336;12.612;2023-03-14T01:28:54;97757.91;;;12.37;65.89
60061;BME280;45933;51.336;12.612;2023-03-14T01:31:20;97756.94;;;12.39;65.70
60061;BME280;45933;51.336;12.612;2023-03-14T01:33:46;97757.78;;;12.40;65.36
60061;BME280;45933;51.336;12.612;2023-03-14T01:36:12;97760.38;;;12.40;65.26
60061;BME280;45933;51.336;12.612;2023-03-14T01:38:38;97754.38;;;12.38;65.13
60061;BME280;45933;51.336;12.612;2023-03-14T01:41:06;97734.19;;;12.24;65.32
60061;BME280;45933;51.336;12.612;2023-03-14T01:43:31;97757.44;;;12.28;65.14
60061;BME280;45933;51.336;12.612;2023-03-14T01:48:48;97751.44;;;12.44;64.69
60061;BME280;45933;51.336;12.612;2023-03-14T01:51:27;97742.78;;;12.43;64.63
60061;BME280;45933;51.336;12.612;2023-03-14T01:53:59;97749.94;;;12.40;64.45
60061;BME280;45933;51.336;12.612;2023-03-14T01:56:26;97746.31;;;12.42;64.28
60061;BME280;45933;51.336;12.612;2023-03-14T01:58:51;97741.00;;;12.44;64.16
60061;BME280;45933;51.336;12.612;2023-03-14T02:01:19;97741.00;;;12.44;64.18
60061;BME280;45933;51.336;12.612;2023-03-14T02:03:55;97732.25;;;12.45;64.27
60061;BME280;45933;51.336;12.612;2023-03-14T02:06:24;97727.09;;;12.43;64.10
60061;BME280;45933;51.336;12.612;2023-03-14T02:08:51;97727.88;;;12.45;63.78
60061;BME280;45933;51.336;12.612;2023-03-14T02:11:17;97711.50;;;12.42;63.98
60061;BME280;45933;51.336;12.612;2023-03-14T02:13:44;97714.22;;;12.40;64.18
60061;BME280;45933;51.336;12.612;2023-03-14T02:16:09;97716.03;;;12.38;63.89
60061;BME280;45933;51.336;12.612;2023-03-14T02:18:36;97721.44;;;12.35;63.87
60061;BME280;45933;51.336;12.612;2023-03-14T02:21:23;97710.50;;;12.44;63.74
60061;BME280;45933;51.336;12.612;2023-03-14T02:24:34;97702.06;;;12.39;63.59
60061;BME280;45933;51.336;12.612;2023-03-14T02:29:30;97696.59;;;12.26;64.06
60061;BME280;45933;51.336;12.612;2023-03-14T02:31:56;97701.69;;;12.29;63.60
60061;BME280;45933;51.336;12.612;2023-03-14T02:34:22;97696.06;;;12.20;63.64
60061;BME280;45933;51.336;12.612;2023-03-14T02:36:48;97682.94;;;12.21;63.44
60061;BME280;45933;51.336;12.612;2023-03-14T02:39:19;97685.00;;;12.15;63.52
60061;BME280;45933;51.336;12.612;2023-03-14T02:41:47;97656.81;;;12.21;63.40
60061;BME280;45933;51.336;12.612;2023-03-14T02:44:14;97667.13;;;12.24;63.39
60061;BME280;45933;51.336;12.612;2023-03-14T02:46:39;97662.81;;;12.23;63.16
60061;BME280;45933;51.336;12.612;2023-03-14T02:49:08;97658.97;;;12.13;63.52
60061;BME280;45933;51.336;12.612;2023-03-14T02:51:35;97647.00;;;12.09;63.69
60061;BME280;45933;51.336;12.612;2023-03-14T02:54:01;97649.84;;;12.04;63.54
60061;BME280;45933;51.336;12.612;2023-03-14T02:56:26;97640.69;;;11.96;63.53
60061;BME280;45933;51.336;12.612;2023-03-14T02:58:52;97641.91;;;12.06;63.31
60061;BME280;45933;51.336;12.612;2023-03-14T03:01:17;97642.84;;;12.05;63.42
60061;BME280;45933;51.336;12.612;2023-03-14T03:03:42;97636.06;;;12.01;63.34
60061;BME280;45933;51.336;12.612;2023-03-14T03:06:08;97637.53;;;12.07;62.92
60061;BME280;45933;51.336;12.612;2023-03-14T03:08:33;97634.09;;;12.06;62.51
60061;BME280;45933;51.336;12.612;2023-03-14T03:10:59;97625.56;;;12.02;62.83
60061;BME280;45933;51.336;12.612;2023-03-14T03:13:25;97634.09;;;12.06;62.58
60061;BME280;45933;51.336;12.612;2023-03-14T03:15:50;97629.34;;;11.97;62.63
60061;BME280;45933;51.336;12.612;2023-03-14T03:18:16;97633.78;;;11.95;62.71
60061;BME280;45933;51.336;12.612;2023-03-14T03:20:41;97654.56;;;11.96;62.70
60061;BME280;45933;51.336;12.612;2023-03-14T03:23:06;97657.13;;;11.98;62.71
60061;BME280;45933;51.336;12.612;2023-03-14T03:25:32;97662.13;;;12.02;62.25
60061;BME280;45933;51.336;12.612;2023-03-14T03:27:57;97646.59;;;11.99;62.46
60061;BME280;45933;51.336;12.612;2023-03-14T03:30:22;97637.31;;;11.94;62.39
60061;BME280;45933;51.336;12.612;2023-03-14T03:32:48;97639.84;;;11.95;62.39
60061;BME280;45933;51.336;12.612;2023-03-14T03:35:13;97631.03;;;11.98;62.38
60061;BME280;45933;51.336;12.612;2023-03-14T03:37:39;97632.78;;;11.97;62.27
60061;BME280;45933;51.336;12.612;2023-03-14T03:40:05;97613.38;;;12.03;62.12
60061;BME280;45933;51.336;12.612;2023-03-14T03:42:32;97607.13;;;12.06;62.02
60061;BME280;45933;51.336;12.612;2023-03-14T03:44:59;97609.13;;;12.00;61.97
60061;BME280;45933;51.336;12.612;2023-03-14T03:47:24;97600.84;;;12.10;61.84
60061;BME280;45933;51.336;12.612;2023-03-14T03:49:50;97596.59;;;12.07;61.51
60061;BME280;45933;51.336;12.612;2023-03-14T03:52:16;97587.91;;;12.07;61.70
60061;BME280;45933;51.336;12.612;2023-03-14T03:54:41;97585.63;;;12.00;61.67
60061;BME280;45933;51.336;12.612;2023-03-14T03:57:07;97597.84;;;12.00;61.70
60061;BME280;45933;51.336;12.612;2023-03-14T03:59:32;97583.63;;;12.06;61.80
60061;BME280;45933;51.336;12.612;2023-03-14T04:01:57;97590.72;;;12.03;61.66
60061;BME280;45933;51.336;12.612;2023-03-14T04:04:23;97590.72;;;12.03;61.42
60061;BME280;45933;51.336;12.612;2023-03-14T04:06:48;97588.00;;;12.05;61.46
60061;BME280;45933;51.336;12.612;2023-03-14T04:09:13;97589.63;;;12.08;61.42
60061;BME280;45933;51.336;12.612;2023-03-14T04:11:39;97587.91;;;12.07;61.41
60061;BME280;45933;51.336;12.612;2023-03-14T04:14:04;97599.53;;;12.01;61.75
60061;BME280;45933;51.336;12.612;2023-03-14T04:16:30;97588.66;;;11.93;61.56
60061;BME280;45933;51.336;12.612;2023-03-14T04:18:57;97592.63;;;12.00;61.69
60061;BME280;45933;51.336;12.612;2023-03-14T04:21:22;97597.75;;;12.01;61.54
60061;BME280;45933;51.336;12.612;2023-03-14T04:23:47;97591.06;;;11.96;61.62
60061;BME280;45933;51.336;12.612;2023-03-14T04:26:12;97595.63;;;11.92;61.45
60061;BME280;45933;51.336;12.612;2023-03-14T04:28:38;97594.00;;;11.90;61.53
60061;BME280;45933;51.336;12.612;2023-03-14T04:31:15;97593.03;;;11.92;61.48
60061;BME280;45933;51.336;12.612;2023-03-14T04:33:41;97588.09;;;11.86;61.29
60061;BME280;45933;51.336;12.612;2023-03-14T04:36:07;97593.16;;;11.89;61.38
60061;BME280;45933;51.336;12.612;2023-03-14T04:38:32;97590.63;;;11.88;61.43
60061;BME280;45933;51.336;12.612;2023-03-14T04:40:58;97572.78;;;11.78;61.60
60061;BME280;45933;51.336;12.612;2023-03-14T04:43:24;97577.03;;;11.81;61.43
60061;BME280;45933;51.336;12.612;2023-03-14T04:45:50;97579.41;;;11.86;61.34
60061;BME280;45933;51.336;12.612;2023-03-14T04:48:16;97585.13;;;11.75;61.26
60061;BME280;45933;51.336;12.612;2023-03-14T04:50:41;97585.66;;;11.83;61.14
60061;BME280;45933;51.336;12.612;2023-03-14T04:53:06;97569.19;;;11.81;61.14
60061;BME280;45933;51.336;12.612;2023-03-14T04:55:32;97565.72;;;11.81;61.22
60061;BME280;45933;51.336;12.612;2023-03-14T04:57:58;97569.97;;;11.83;61.28
60061;BME280;45933;51.336;12.612;2023-03-14T05:00:24;97571.81;;;11.81;60.95
60061;BME280;45933;51.336;12.612;2023-03-14T05:02:49;97569.06;;;11.84;61.09
60061;BME280;45933;51.336;12.612;2023-03-14T05:05:14;97568.31;;;11.81;61.05
60061;BME280;45933;51.336;12.612;2023-03-14T05:07:40;97560.59;;;11.79;61.01
60061;BME280;45933;51.336;12.612;2023-03-14T05:10:05;97557.28;;;11.75;61.00
60061;BME280;45933;51.336;12.612;2023-03-14T05:12:31;97555.38;;;11.79;61.01
60061;BME280;45933;51.336;12.612;2023-03-14T05:14:56;97559.66;;;11.80;60.62
60061;BME280;45933;51.336;12.612;2023-03-14T05:17:21;97561.41;;;11.79;60.79
60061;BME280;45933;51.336;12.612;2023-03-14T05:19:47;97550.97;;;11.79;60.83
60061;BME280;45933;51.336;12.612;2023-03-14T05:22:12;97549.44;;;11.75;60.74
60061;BME280;45933;51.336;12.612;2023-03-14T05:24:38;97552.84;;;11.77;60.65
60061;BME280;45933;51.336;12.612;2023-03-14T05:27:03;97552.00;;;11.77;60.46
60061;BME280;45933;51.336;12.612;2023-03-14T05:29:29;97546.78;;;11.77;60.58
60061;BME280;45933;51.336;12.612;2023-03-14T05:31:54;97532.72;;;11.79;60.46
60061;BME280;45933;51.336;12.612;2023-03-14T05:34:19;97542.19;;;11.82;60.17
60061;BME280;45933;51.336;12.612;2023-03-14T05:36:45;97538.88;;;11.78;60.10
60061;BME280;45933;51.336;12.612;2023-03-14T05:39:10;97538.56;;;11.85;59.92
60061;BME280;45933;51.336;12.612;2023-03-14T05:41:35;97544.72;;;11.84;59.82
60061;BME280;45933;51.336;12.612;2023-03-14T05:44:01;97529.66;;;11.71;60.03
60061;BME280;45933;51.336;12.612;2023-03-14T05:46:26;97533.44;;;11.83;59.89
60061;BME280;45933;51.336;12.612;2023-03-14T05:48:51;97530.34;;;11.75;59.91
60061;BME280;45933;51.336;12.612;2023-03-14T05:51:17;97528.66;;;11.74;60.01
60061;BME280;45933;51.336;12.612;2023-03-14T05:53:42;97522.59;;;11.73;59.60
60061;BME280;45933;51.336;12.612;2023-03-14T05:56:07;97520.59;;;11.78;59.90
60061;BME280;45933;51.336;12.612;2023-03-14T05:58:33;97518.81;;;11.79;59.83
60061;BME280;45933;51.336;12.612;2023-03-14T06:01:02;97537.19;;;11.77;59.85
60061;BME280;45933;51.336;12.612;2023-03-14T06:03:28;97532.94;;;11.75;59.94
60061;BME280;45933;51.336;12.612;2023-03-14T06:05:53;97528.66;;;11.74;59.55
60061;BME280;45933;51.336;12.612;2023-03-14T06:08:19;97531.34;;;11.72;59.93
60061;BME280;45933;51.336;12.612;2023-03-14T06:10:44;97536.41;;;11.75;60.11
60061;BME280;45933;51.336;12.612;2023-03-14T06:13:09;97541.88;;;11.71;59.98
60061;BME280;45933;51.336;12.612;2023-03-14T06:15:34;97544.16;;;11.77;59.80
60061;BME280;45933;51.336;12.612;2023-03-14T06:18:01;97540.50;;;11.81;59.75
60061;BME280;45933;51.336;12.612;2023-03-14T06:20:26;97534.47;;;11.79;59.41
60061;BME280;45933;51.336;12.612;2023-03-14T06:22:52;97536.78;;;11.68;59.88
60061;BME280;45933;51.336;12.612;2023-03-14T06:25:17;97536.34;;;11.77;59.78
60061;BME280;45933;51.336;12.612;2023-03-14T06:27:42;97542.13;;;11.84;59.54
60061;BME280;45933;51.336;12.612;2023-03-14T06:30:08;97550.31;;;11.76;59.03
60061;BME280;45933;51.336;12.612;2023-03-14T06:32:34;97542.31;;;11.79;59.44
60061;BME280;45933;51.336;12.612;2023-03-14T06:34:59;97564.53;;;11.88;59.31
60061;BME280;45933;51.336;12.612;2023-03-14T06:37:27;97561.75;;;11.91;59.26
60061;BME280;45933;51.336;12.612;2023-03-14T06:39:53;97558.16;;;11.93;59.13
60061;BME280;45933;51.336;12.612;2023-03-14T06:42:18;97562.38;;;11.96;59.28
60061;BME280;45933;51.336;12.612;2023-03-14T06:44:43;97559.09;;;11.92;59.02
60061;BME280;45933;51.336;12.612;2023-03-14T06:47:09;97571.28;;;11.92;58.50
60061;BME280;45933;51.336;12.612;2023-03-14T06:49:34;97567.53;;;11.97;58.85
60061;BME280;45933;51.336;12.612;2023-03-14T06:51:59;97565.53;;;12.02;58.71
60061;BME280;45933;51.336;12.612;2023-03-14T06:54:24;97574.88;;;12.07;58.32
60061;BME280;45933;51.336;12.612;2023-03-14T06:56:50;97575.97;;;12.02;58.70
60061;BME280;45933;51.336;12.612;2023-03-14T06:59:15;97574.03;;;12.06;58.43
60061;BME280;45933;51.336;12.612;2023-03-14T07:01:40;97582.69;;;12.07;58.46
60061;BME280;45933;51.336;12.612;2023-03-14T07:04:06;97576.50;;;12.09;58.64
60061;BME280;45933;51.336;12.612;2023-03-14T07:06:33;97579.78;;;12.13;58.46
60061;BME280;45933;51.336;12.612;2023-03-14T07:08:58;97576.16;;;12.15;58.65
60061;BME280;45933;51.336;12.612;2023-03-14T07:11:25;97572.84;;;12.12;57.99
60061;BME280;45933;51.336;12.612;2023-03-14T07:13:51;97575.31;;;12.15;57.88
60061;BME280;45933;51.336;12.612;2023-03-14T07:16:16;97575.25;;;12.16;58.20
60061;BME280;45933;51.336;12.612;2023-03-14T07:18:41;97569.03;;;12.19;58.25
60061;BME280;45933;51.336;12.612;2023-03-14T07:21:07;97573.31;;;12.20;58.02
60061;BME280;45933;51.336;12.612;2023-03-14T07:23:34;97565.16;;;12.26;58.11
60061;BME280;45933;51.336;12.612;2023-03-14T07:25:59;97564.16;;;12.28;57.98
60061;BME280;45933;51.336;12.612;2023-03-14T07:28:25;97565.25;;;12.24;57.71
60061;BME280;45933;51.336;12.612;2023-03-14T07:30:52;97568.38;;;12.31;57.68
60061;BME280;45933;51.336;12.612;2023-03-14T07:33:17;97569.97;;;12.34;57.86
60061;BME280;45933;51.336;12.612;2023-03-14T07:35:43;97570.75;;;12.36;57.30
60061;BME280;45933;51.336;12.612;2023-03-14T07:38:08;97577.50;;;12.40;57.19
60061;BME280;45933;51.336;12.612;2023-03-14T07:40:33;97573.63;;;12.47;57.22
60061;BME280;45933;51.336;12.612;2023-03-14T07:42:59;97575.16;;;12.51;56.89
60061;BME280;45933;51.336;12.612;2023-03-14T07:45:24;97577.59;;;12.54;56.75
60061;BME280;45933;51.336;12.612;2023-03-14T07:47:49;97580.41;;;12.67;56.97
60061;BME280;45933;51.336;12.612;2023-03-14T07:50:15;97582.09;;;12.68;56.94
60061;BME280;45933;51.336;12.612;2023-03-14T07:52:40;97594.84;;;12.74;56.30
60061;BME280;45933;51.336;12.612;2023-03-14T07:55:06;97578.66;;;12.83;56.46
60061;BME280;45933;51.336;12.612;2023-03-14T07:57:31;97579.25;;;12.88;56.23
60061;BME280;45933;51.336;12.612;2023-03-14T07:59:56;97579.66;;;12.96;56.71
60061;BME280;45933;51.336;12.612;2023-03-14T08:02:22;97583.66;;;13.03;56.11
60061;BME280;45933;51.336;12.612;2023-03-14T08:04:49;97590.22;;;13.11;56.06
60061;BME280;45933;51.336;12.612;2023-03-14T08:07:14;97585.66;;;13.14;55.48
60061;BME280;45933;51.336;12.612;2023-03-14T08:09:40;97572.09;;;13.23;55.60
60061;BME280;45933;51.336;12.612;2023-03-14T08:12:06;97569.53;;;13.38;55.89
60061;BME280;45933;51.336;12.612;2023-03-14T08:14:31;97567.50;;;13.43;54.83
60061;BME280;45933;51.336;12.612;2023-03-14T08:16:56;97558.41;;;13.50;55.22
60061;BME280;45933;51.336;12.612;2023-03-14T08:19:22;97550.75;;;13.61;54.74
60061;BME280;45933;51.336;12.612;2023-03-14T08:21:47;97556.63;;;13.65;53.80
60061;BME280;45933;51.336;12.612;2023-03-14T08:24:12;97562.09;;;13.76;54.25
60061;BME280;45933;51.336;12.612;2023-03-14T08:26:38;97543.91;;;13.89;54.84
60061;BME280;45933;51.336;12.612;2023-03-14T08:29:03;97545.63;;;14.04;54.76
60061;BME280;45933;51.336;12.612;2023-03-14T08:31:29;97544.50;;;14.22;54.49
60061;BME280;45933;51.336;12.612;2023-03-14T08:33:57;97549.63;;;14.38;53.97
60061;BME280;45933;51.336;12.612;2023-03-14T08:36:23;97541.31;;;14.46;53.02
60061;BME280;45933;51.336;12.612;2023-03-14T08:38:48;97540.88;;;14.53;52.13
60061;BME280;45933;51.336;12.612;2023-03-14T08:41:13;97544.78;;;14.46;52.31
60061;BME280;45933;51.336;12.612;2023-03-14T08:43:38;97541.72;;;14.39;51.70
60061;BME280;45933;51.336;12.612;2023-03-14T08:46:04;97530.84;;;14.46;51.91
60061;BME280;45933;51.336;12.612;2023-03-14T08:48:29;97530.91;;;14.44;52.09
60061;BME280;45933;51.336;12.612;2023-03-14T08:50:56;97527.09;;;14.35;52.41
60061;BME280;45933;51.336;12.612;2023-03-14T08:53:22;97532.16;;;14.24;52.25
60061;BME280;45933;51.336;12.612;2023-03-14T08:55:52;97540.19;;;14.21;51.92
60061;BME280;45933;51.336;12.612;2023-03-14T08:58:17;97547.94;;;14.23;52.07
60061;BME280;45933;51.336;12.612;2023-03-14T09:00:43;97540.16;;;14.07;51.40
60061;BME280;45933;51.336;12.612;2023-03-14T09:03:08;97540.75;;;14.12;51.78
60061;BME280;45933;51.336;12.612;2023-03-14T09:05:34;97538.69;;;14.17;52.09
60061;BME280;45933;51.336;12.612;2023-03-14T09:07:59;97542.81;;;14.21;51.45
60061;BME280;45933;51.336;12.612;2023-03-14T09:10:24;97540.66;;;14.13;51.32
60061;BME280;45933;51.336;12.612;2023-03-14T09:12:50;97542.41;;;14.13;51.60
60061;BME280;45933;51.336;12.612;2023-03-14T09:15:15;97547.38;;;14.18;51.09
60061;BME280;45933;51.336;12.612;2023-03-14T09:17:42;97549.25;;;14.16;51.25
60061;BME280;45933;51.336;12.612;2023-03-14T09:20:09;97557.28;;;14.12;51.16
60061;BME280;45933;51.336;12.612;2023-03-14T09:22:34;97567.88;;;14.11;51.52
60061;BME280;45933;51.336;12.612;2023-03-14T09:25:01;97560.97;;;14.10;51.14
60061;BME280;45933;51.336;12.612;2023-03-14T09:27:26;97563.94;;;14.18;51.00
60061;BME280;45933;51.336;12.612;2023-03-14T09:29:51;97563.94;;;14.18;51.74
60061;BME280;45933;51.336;12.612;2023-03-14T09:32:16;97578.56;;;14.22;50.63
60061;BME280;45933;51.336;12.612;2023-03-14T09:34:42;97566.50;;;14.20;50.89
60061;BME280;45933;51.336;12.612;2023-03-14T09:37:07;97558.44;;;14.23;51.18
60061;BME280;45933;51.336;12.612;2023-03-14T09:39:32;97554.53;;;14.30;51.14
60061;BME280;45933;51.336;12.612;2023-03-14T09:42:02;97583.06;;;14.20;50.84
60061;BME280;45933;51.336;12.612;2023-03-14T09:44:42;97569.84;;;14.22;50.65
60061;BME280;45933;51.336;12.612;2023-03-14T09:47:12;97572.69;;;14.19;50.82
60061;BME280;45933;51.336;12.612;2023-03-14T09:49:41;97574.06;;;14.38;50.81
60061;BME280;45933;51.336;12.612;2023-03-14T09:52:14;97571.28;;;14.42;50.86
60061;BME280;45933;51.336;12.612;2023-03-14T09:55:04;97574.66;;;14.58;51.45
60061;BME280;45933;51.336;12.612;2023-03-14T09:57:32;97583.00;;;14.50;50.48
60061;BME280;45933;51.336;12.612;2023-03-14T10:00:26;97579.34;;;14.67;51.25
60061;BME280;45933;51.336;12.612;2023-03-14T10:03:00;97587.50;;;14.62;50.49
60061;BME280;45933;51.336;12.612;2023-03-14T10:05:32;97576.84;;;14.51;49.78
60061;BME280;45933;51.336;12.612;2023-03-14T10:07:58;97578.63;;;14.51;50.41
60061;BME280;45933;51.336;12.612;2023-03-14T10:10:25;97570.53;;;14.54;49.45
60061;BME280;45933;51.336;12.612;2023-03-14T10:13:12;97574.94;;;14.53;49.64
60061;BME280;45933;51.336;12.612;2023-03-14T10:15:39;97569.97;;;14.49;49.64
60061;BME280;45933;51.336;12.612;2023-03-14T10:18:11;97576.84;;;14.51;49.90
60061;BME280;45933;51.336;12.612;2023-03-14T10:20:45;97565.41;;;14.52;49.63
60061;BME280;45933;51.336;12.612;2023-03-14T10:25:38;97574.06;;;14.38;49.53
60061;BME280;45933;51.336;12.612;2023-03-14T10:28:04;97571.84;;;14.47;49.93
60061;BME280;45933;51.336;12.612;2023-03-14T10:30:43;97574.16;;;14.37;49.13
60061;BME280;45933;51.336;12.612;2023-03-14T10:33:33;97571.47;;;14.53;49.99
60061;BME280;45933;51.336;12.612;2023-03-14T10:36:01;97569.59;;;14.41;49.69
60061;BME280;45933;51.336;12.612;2023-03-14T10:38:32;97573.88;;;14.42;49.50
60061;BME280;45933;51.336;12.612;2023-03-14T10:40:58;97577.84;;;14.34;49.88
60061;BME280;45933;51.336;12.612;2023-03-14T10:43:34;97575.56;;;14.43;50.54
60061;BME280;45933;51.336;12.612;2023-03-14T10:46:14;97575.06;;;14.52;50.31
60061;BME280;45933;51.336;12.612;2023-03-14T10:48:40;97588.94;;;14.38;50.81
60061;BME280;45933;51.336;12.612;2023-03-14T10:53:44;97584.53;;;14.38;50.91
60061;BME280;45933;51.336;12.612;2023-03-14T10:56:19;97574.16;;;14.37;50.88
60061;BME280;45933;51.336;12.612;2023-03-14T10:58:49;97582.69;;;14.26;49.46
60061;BME280;45933;51.336;12.612;2023-03-14T11:03:47;97584.09;;;14.32;49.22
60061;BME280;45933;51.336;12.612;2023-03-14T11:06:25;97585.88;;;14.31;49.03
60061;BME280;45933;51.336;12.612;2023-03-14T11:11:22;97556.75;;;14.36;49.31
60061;BME280;45933;51.336;12.612;2023-03-14T11:17:04;97557.81;;;14.62;49.46
60061;BME280;45933;51.336;12.612;2023-03-14T11:19:46;97557.53;;;14.52;48.65
60061;BME280;45933;51.336;12.612;2023-03-14T11:22:36;97563.34;;;14.57;48.23
60061;BME280;45933;51.336;12.612;2023-03-14T11:25:16;97585.25;;;14.56;47.53
60061;BME280;45933;51.336;12.612;2023-03-14T11:28:10;97579.19;;;14.56;47.98
60061;BME280;45933;51.336;12.612;2023-03-14T11:30:55;97575.50;;;14.58;48.23
60061;BME280;45933;51.336;12.612;2023-03-14T11:33:35;97582.34;;;14.61;48.82
60061;BME280;45933;51.336;12.612;2023-03-14T11:36:10;97602.50;;;14.45;50.78
60061;BME280;45933;51.336;12.612;2023-03-14T11:38:50;97582.59;;;14.42;51.49
60061;BME280;45933;51.336;12.612;2023-03-14T11:41:23;97580.78;;;14.28;52.96
60061;BME280;45933;51.336;12.612;2023-03-14T11:43:55;97580.34;;;14.22;53.43
60061;BME280;45933;51.336;12.612;2023-03-14T11:46:25;97583.53;;;14.27;53.75
60061;BME280;45933;51.336;12.612;2023-03-14T11:49:21;97578.09;;;14.16;53.77
60061;BME280;45933;51.336;12.612;2023-03-14T11:51:52;97573.03;;;14.27;53.70
60061;BME280;45933;51.336;12.612;2023-03-14T11:56:55;97583.63;;;14.25;53.42
60061;BME280;45933;51.336;12.612;2023-03-14T12:01:57;97582.50;;;14.29;53.73
60061;BME280;45933;51.336;12.612;2023-03-14T12:07:34;97559.59;;;14.47;53.21
60061;BME280;45933;51.336;12.612;2023-03-14T12:10:05;97557.53;;;14.52;53.32
60061;BME280;45933;51.336;12.612;2023-03-14T12:12:32;97560.16;;;14.52;52.39
60061;BME280;45933;51.336;12.612;2023-03-14T12:15:00;97549.84;;;14.63;52.37
60061;BME280;45933;51.336;12.612;2023-03-14T12:17:41;97549.06;;;14.76;52.07
60061;BME280;45933;51.336;12.612;2023-03-14T12:30:34;97549.47;;;15.11;49.76
60061;BME280;45933;51.336;12.612;2023-03-14T12:35:43;97528.91;;;15.17;49.56
60061;BME280;45933;51.336;12.612;2023-03-14T12:41:44;97528.91;;;15.17;49.47
60061;BME280;45933;51.336;12.612;2023-03-14T12:46:57;97533.53;;;15.14;50.14
60061;BME280;45933;51.336;12.612;2023-03-14T12:49:30;97534.38;;;15.14;50.06
60061;BME280;45933;51.336;12.612;2023-03-14T12:52:00;97532.09;;;15.23;50.40
60061;BME280;45933;51.336;12.612;2023-03-14T12:59:59;97524.00;;;15.53;48.64
60061;BME280;45933;51.336;12.612;2023-03-14T13:02:41;97514.41;;;15.79;48.44
60061;BME280;45933;51.336;12.612;2023-03-14T13:05:21;97516.00;;;15.94;47.85
60061;BME280;45933;51.336;12.612;2023-03-14T13:10:26;97500.03;;;15.84;47.10
60061;BME280;45933;51.336;12.612;2023-03-14T13:13:20;97491.22;;;15.98;47.78
60061;BME280;45933;51.336;12.612;2023-03-14T13:15:48;97485.22;;;16.09;47.98
60061;BME280;45933;51.336;12.612;2023-03-14T13:18:34;97473.28;;;16.29;47.32
60061;BME280;45933;51.336;12.612;2023-03-14T13:21:21;97476.44;;;16.46;47.52
60061;BME280;45933;51.336;12.612;2023-03-14T13:26:21;97486.31;;;16.92;46.01
60061;BME280;45933;51.336;12.612;2023-03-14T13:28:46;97486.16;;;17.07;44.82
60061;BME280;45933;51.336;12.612;2023-03-14T13:31:23;97485.69;;;17.37;43.77
60061;BME280;45933;51.336;12.612;2023-03-14T13:34:04;97490.31;;;17.57;43.93
60061;BME280;45933;51.336;12.612;2023-03-14T13:36:29;97482.75;;;17.52;43.72
60061;BME280;45933;51.336;12.612;2023-03-14T13:38:59;97483.72;;;17.51;43.73
60061;BME280;45933;51.336;12.612;2023-03-14T13:41:26;97478.50;;;17.39;42.96
60061;BME280;45933;51.336;12.612;2023-03-14T13:44:01;97478.75;;;17.36;43.61
60061;BME280;45933;51.336;12.612;2023-03-14T13:46:28;97478.72;;;17.24;43.94
60061;BME280;45933;51.336;12.612;2023-03-14T13:48:57;97473.53;;;17.23;44.39
60061;BME280;45933;51.336;12.612;2023-03-14T13:51:24;97479.66;;;16.99;44.18